createdAt,value
2019-03-24T09:20:03.112Z,6.50
2019-03-24T09:25:15.208Z,6.50
2019-03-24T10:21:39.192Z,5.03
2019-03-24T10:32:29.984Z,5.07
2019-03-24T10:35:20.386Z,4.90
2019-03-24T10:46:56.219Z,5.55
2019-03-24T10:49:25.433Z,4.63
2019-03-24T10:51:54.917Z,5.23
2019-03-24T10:54:25.358Z,5.10
2019-03-24T10:56:55.078Z,4.53
2019-03-24T10:59:23.947Z,4.57
2019-03-24T11:01:55.036Z,4.53
2019-03-24T11:04:30.894Z,4.60
2019-03-24T11:07:04.264Z,5.27
2019-03-24T11:09:36.733Z,4.80
2019-03-24T11:12:07.445Z,5.10
2019-03-24T11:14:38.623Z,5.20
2019-03-24T11:17:15.349Z,5.87
2019-03-24T11:19:52.537Z,5.00
2019-03-24T11:22:22.501Z,4.73
2019-03-24T11:24:54.693Z,5.13
2019-03-24T11:27:23.970Z,5.33
2019-03-24T11:29:55.386Z,6.20
2019-03-24T11:32:27.191Z,5.57
2019-03-24T11:34:58.905Z,5.53
2019-03-24T11:37:29.240Z,5.40
2019-03-24T11:40:04.235Z,6.07
2019-03-24T11:42:36.524Z,4.50
2019-03-24T11:45:13.284Z,4.40
2019-03-24T11:47:42.374Z,5.60
2019-03-24T11:50:14.526Z,5.30
2019-03-24T11:53:53.911Z,5.10
2019-03-24T11:56:24.109Z,5.27
2019-03-24T11:58:55.337Z,5.53
2019-03-24T12:01:24.549Z,4.90
2019-03-24T12:03:53.737Z,5.17
2019-03-24T12:06:25.395Z,5.60
2019-03-24T12:08:55.314Z,4.30
2019-03-24T12:11:24.519Z,5.23
2019-03-24T12:17:04.032Z,5.20
2019-03-24T12:19:36.622Z,5.60
2019-03-24T12:22:25.768Z,4.13
2019-03-24T12:24:57.418Z,4.23
2019-03-24T12:57:44.494Z,3.43
2019-03-24T13:00:18.841Z,3.33
2019-03-24T13:02:51.719Z,3.13
2019-03-24T13:05:20.635Z,3.53
2019-03-24T13:07:51.841Z,3.87
2019-03-24T13:10:22.608Z,3.53
2019-03-24T13:12:51.995Z,3.27
2019-03-24T13:15:21.763Z,3.70
2019-03-24T13:17:50.701Z,3.20
2019-03-24T13:20:36.571Z,3.83
2019-03-24T13:22:54.003Z,3.90
2019-03-24T13:25:22.956Z,3.73
2019-03-24T13:27:52.396Z,3.83
2019-03-24T13:30:21.455Z,4.57
2019-03-24T13:32:50.411Z,4.80
2019-03-24T13:35:20.847Z,3.80
2019-03-24T13:37:52.361Z,4.33
2019-03-24T13:40:22.035Z,3.77
2019-03-24T13:42:50.860Z,4.33
2019-03-24T13:45:19.790Z,4.07
2019-03-24T13:47:53.058Z,3.57
2019-03-24T13:50:31.556Z,3.80
2019-03-24T13:53:03.097Z,4.03
2019-03-24T13:55:33.233Z,4.10
2019-03-24T13:58:03.669Z,4.90
2019-03-24T14:00:32.572Z,4.73
2019-03-24T14:03:02.242Z,3.90
2019-03-24T14:05:31.955Z,4.13
2019-03-24T14:08:02.586Z,4.57
2019-03-24T14:10:32.817Z,3.83
2019-03-24T14:13:03.556Z,4.03
2019-03-24T14:15:34.322Z,4.13
2019-03-24T14:18:03.284Z,3.83
2019-03-24T14:20:42.978Z,3.97
2019-03-24T14:23:04.307Z,4.13
2019-03-24T14:25:33.920Z,3.93
2019-03-24T14:28:02.812Z,4.30
2019-03-24T14:30:40.334Z,4.20
2019-03-24T14:33:09.487Z,4.10
2019-03-24T14:35:38.336Z,3.60
2019-03-24T14:38:07.089Z,4.10
2019-03-24T14:40:35.937Z,4.13
2019-03-24T14:43:06.525Z,5.40
2019-03-24T14:45:36.661Z,3.77
2019-03-24T14:48:06.775Z,3.97
2019-03-24T14:50:35.704Z,4.60
2019-03-24T14:53:04.578Z,4.37
2019-03-24T14:55:34.012Z,4.40
2019-03-24T14:58:02.952Z,4.60
2019-03-24T15:00:43.194Z,4.43
2019-03-24T15:03:13.823Z,4.37
2019-03-24T15:05:43.320Z,4.60
2019-03-24T15:08:12.594Z,4.10
2019-03-24T15:10:41.478Z,4.17
2019-03-24T15:13:10.321Z,4.83
2019-03-24T15:15:39.220Z,3.80
2019-03-24T15:18:08.873Z,4.10
2019-03-24T15:20:37.796Z,4.77
2019-03-24T15:23:06.780Z,4.50
2019-03-24T15:25:36.025Z,4.70
2019-03-24T15:28:05.667Z,4.87
2019-03-24T15:30:35.536Z,5.03
2019-03-24T15:33:04.979Z,4.67
2019-03-24T15:35:33.801Z,4.80
2019-03-24T15:38:08.419Z,4.93
2019-03-24T15:40:41.644Z,4.50
2019-03-24T15:43:13.795Z,4.57
2019-03-24T15:45:44.488Z,4.40
2019-03-24T15:48:13.264Z,4.17
2019-03-24T15:50:42.210Z,4.37
2019-03-24T15:53:11.086Z,4.17
2019-03-24T15:55:40.819Z,4.00
2019-03-24T15:58:09.722Z,4.20
2019-03-24T16:00:44.527Z,3.80
2019-03-24T16:03:15.166Z,4.17
2019-03-24T16:05:47.024Z,3.60
2019-03-24T16:08:18.175Z,4.27
2019-03-24T16:10:48.320Z,3.77
2019-03-24T16:13:17.252Z,4.30
2019-03-24T16:15:54.057Z,4.27
2019-03-24T16:18:23.866Z,3.43
2019-03-24T16:21:01.579Z,3.83
2019-03-24T16:23:33.509Z,3.43
2019-03-24T16:26:07.274Z,3.43
2019-03-24T16:28:37.986Z,3.90
2019-03-24T16:31:10.096Z,3.40
2019-03-24T16:33:40.827Z,3.53
2019-03-24T16:36:11.966Z,3.20
2019-03-24T16:38:48.937Z,3.07
2019-03-24T16:41:11.695Z,3.50
2019-03-24T16:43:40.596Z,3.20
2019-03-24T16:46:09.929Z,3.33
2019-03-24T16:48:43.450Z,2.87
2019-03-24T16:51:15.473Z,2.80
2019-03-24T16:53:50.603Z,2.60
2019-03-24T16:56:19.939Z,2.67
2019-03-24T16:58:50.120Z,2.87
2019-03-24T17:01:26.941Z,2.43
2019-03-24T17:03:57.151Z,2.37
2019-03-24T17:06:26.322Z,2.40
2019-03-24T17:08:57.827Z,3.13
2019-03-24T17:11:26.316Z,2.90
2019-03-24T17:13:55.216Z,2.47
2019-03-24T17:16:23.966Z,4.20
2019-03-24T17:18:52.799Z,2.23
2019-03-24T17:21:21.661Z,2.40
2019-03-24T17:23:50.771Z,2.23
2019-03-24T17:26:19.658Z,2.63
2019-03-24T17:28:49.043Z,2.30
2019-03-24T17:31:17.870Z,2.33
2019-03-24T17:33:46.713Z,2.50
2019-03-24T17:36:15.545Z,2.27
2019-03-24T17:38:44.475Z,2.67
2019-03-24T17:41:13.548Z,2.83
2019-03-24T17:43:42.436Z,2.70
2019-03-24T17:46:11.198Z,2.47
2019-03-24T17:48:40.552Z,2.50
2019-03-24T17:51:09.362Z,2.20
2019-03-24T17:53:38.207Z,3.07
2019-03-24T17:56:07.668Z,2.30
2019-03-24T17:58:40.749Z,2.20
2019-03-24T18:01:14.441Z,2.30
2019-03-24T18:03:45.020Z,2.43
2019-03-24T18:06:13.858Z,2.13
2019-03-24T18:08:42.738Z,2.47
2019-03-24T18:11:15.972Z,2.73
2019-03-24T18:22:36.724Z,2.40
2019-03-24T18:25:07.664Z,2.10
2019-03-24T18:27:37.012Z,2.70
2019-03-24T18:30:10.190Z,2.70
2019-03-24T18:32:40.373Z,2.53
2019-03-24T18:40:31.973Z,3.03
2019-03-24T18:43:03.295Z,2.53
2019-03-24T18:48:11.927Z,2.37
2019-03-24T18:50:53.858Z,2.50
2019-03-24T18:56:15.284Z,5.10
2019-03-24T18:58:47.005Z,5.40
2019-03-24T19:01:19.482Z,3.80
2019-03-24T19:04:04.925Z,3.60
2019-03-24T19:09:32.739Z,2.90
2019-03-24T19:12:07.094Z,2.30
2019-03-24T19:15:07.539Z,4.23
2019-03-24T19:17:37.891Z,4.53
2019-03-24T19:20:08.790Z,2.80
2019-03-24T19:22:41.317Z,2.60
2019-03-24T19:25:14.056Z,2.50
2019-03-24T19:27:43.470Z,2.30
2019-03-24T19:30:16.194Z,2.50
2019-03-24T19:32:46.334Z,2.10
2019-03-24T19:35:15.303Z,2.50
2019-03-24T19:37:46.222Z,2.17
2019-03-24T19:40:27.382Z,2.40
2019-03-24T19:42:57.992Z,2.63
2019-03-24T19:45:39.348Z,2.50
2019-03-24T19:48:12.692Z,2.70
2019-03-24T19:50:45.527Z,2.90
2019-03-24T19:53:14.332Z,2.87
2019-03-24T19:55:43.788Z,2.60
2019-03-24T19:58:13.662Z,2.73
2019-03-24T20:09:22.476Z,3.27
2019-03-24T20:11:53.142Z,2.90
2019-03-24T20:14:24.142Z,3.30
2019-03-24T20:16:55.344Z,3.30
2019-03-24T20:19:26.777Z,3.70
2019-03-24T20:21:58.556Z,2.80
2019-03-24T20:24:27.871Z,3.90
2019-03-24T20:26:58.622Z,3.77
2019-03-24T20:29:27.817Z,3.37
2019-03-24T20:31:57.796Z,3.00
2019-03-24T20:34:29.290Z,3.80
2019-03-24T20:36:58.120Z,3.30
2019-03-24T20:39:28.430Z,3.37
2019-03-24T20:42:01.335Z,3.20
2019-03-24T20:44:30.773Z,3.27
2019-03-24T21:57:43.007Z,3.30
2019-03-24T22:00:15.980Z,3.00
2019-03-24T22:02:49.640Z,3.20
2019-03-24T22:30:59.681Z,3.20
2019-03-24T23:11:02.578Z,2.90
2019-03-24T23:27:45.204Z,3.30
2019-03-24T23:33:28.737Z,3.27
2019-03-24T23:36:07.331Z,3.00
2019-03-24T23:38:40.339Z,3.10
2019-03-24T23:44:53.573Z,3.00
2019-03-24T23:50:39.284Z,4.37
2019-03-24T23:53:22.727Z,3.20
2019-03-24T23:55:56.786Z,3.00
2019-03-24T23:58:40.278Z,3.53
